createdAt,value
2018-12-31T00:00:37.977Z,4.57
2018-12-31T00:01:47.914Z,4.53
2018-12-31T00:02:57.604Z,4.45
2018-12-31T00:04:07.558Z,4.48
2018-12-31T00:05:17.524Z,4.42
2018-12-31T00:06:27.491Z,4.38
2018-12-31T00:07:37.433Z,4.38
2018-12-31T00:08:47.376Z,4.39
2018-12-31T00:09:57.340Z,4.39
2018-12-31T00:11:07.275Z,4.42
2018-12-31T00:12:17.239Z,4.52
2018-12-31T00:13:27.194Z,4.43
2018-12-31T00:14:37.140Z,4.46
2018-12-31T00:15:47.109Z,4.39
2018-12-31T00:16:56.556Z,4.34
2018-12-31T00:18:06.509Z,4.43
2018-12-31T00:19:16.465Z,4.46
2018-12-31T00:20:26.424Z,4.46
2018-12-31T00:21:36.391Z,4.39
2018-12-31T00:22:46.351Z,4.34
2018-12-31T00:23:56.035Z,4.42
2018-12-31T00:25:05.989Z,4.39
2018-12-31T00:26:15.920Z,4.38
2018-12-31T00:27:25.875Z,4.38
2018-12-31T00:28:35.814Z,4.42
2018-12-31T00:29:45.517Z,4.38
2018-12-31T00:30:55.471Z,4.34
2018-12-31T00:32:04.921Z,4.28
2018-12-31T00:33:14.937Z,4.39
2018-12-31T00:34:24.879Z,4.34
2018-12-31T00:35:34.094Z,4.43
2018-12-31T00:36:44.039Z,4.42
2018-12-31T00:37:53.997Z,4.45
2018-12-31T00:39:03.433Z,4.36
2018-12-31T00:40:13.359Z,4.36
2018-12-31T00:41:22.797Z,4.36
2018-12-31T00:42:32.509Z,4.38
2018-12-31T00:43:42.486Z,4.32
2018-12-31T00:44:52.185Z,4.34
2018-12-31T00:46:02.153Z,4.32
2018-12-31T00:47:12.085Z,4.42
2018-12-31T00:48:22.139Z,4.45
2018-12-31T00:49:32.109Z,4.42
2018-12-31T00:50:42.057Z,4.32
2018-12-31T00:51:52.013Z,4.28
2018-12-31T00:53:01.945Z,4.39
2018-12-31T00:54:11.872Z,4.36
2018-12-31T00:55:21.827Z,4.4
2018-12-31T00:56:31.606Z,4.36
2018-12-31T00:57:41.335Z,4.32
2018-12-31T00:58:51.286Z,4.28
2018-12-31T01:00:00.725Z,4.34
2018-12-31T01:01:10.661Z,4.34
2018-12-31T01:02:20.354Z,4.28
2018-12-31T01:03:31.077Z,4.25
2018-12-31T01:04:40.775Z,4.36
2018-12-31T01:05:50.492Z,4.31
2018-12-31T01:07:00.429Z,4.25
2018-12-31T01:08:10.368Z,4.25
2018-12-31T01:09:20.382Z,4.34
2018-12-31T01:10:30.322Z,4.32
2018-12-31T01:11:40.020Z,4.25
2018-12-31T01:12:49.459Z,4.34
2018-12-31T01:13:58.918Z,4.36
2018-12-31T01:15:08.613Z,4.34
2018-12-31T01:16:18.564Z,4.32
2018-12-31T01:17:28.514Z,4.34
2018-12-31T01:18:38.201Z,4.32
2018-12-31T01:19:48.179Z,4.36
2018-12-31T01:20:57.880Z,4.4
2018-12-31T01:22:07.832Z,4.32
2018-12-31T01:23:17.516Z,4.36
2018-12-31T01:24:27.462Z,4.48
2018-12-31T01:25:37.404Z,4.32
2018-12-31T01:26:48.544Z,4.36
2018-12-31T01:27:58.484Z,4.36
2018-12-31T01:29:08.188Z,4.38
2018-12-31T01:30:18.152Z,4.42
2018-12-31T01:31:28.086Z,4.4
2018-12-31T01:32:37.770Z,4.36
2018-12-31T01:33:47.199Z,4.3
2018-12-31T01:34:57.654Z,4.38
2018-12-31T01:36:07.342Z,4.42
2018-12-31T01:37:17.294Z,4.39
2018-12-31T01:38:27.233Z,4.31
2018-12-31T01:39:36.935Z,4.32
2018-12-31T01:40:46.626Z,4.34
2018-12-31T01:41:56.565Z,4.32
2018-12-31T01:43:06.530Z,4.32
2018-12-31T01:44:16.222Z,4.31
2018-12-31T01:45:26.201Z,4.3
2018-12-31T01:46:36.147Z,4.34
2018-12-31T01:47:45.589Z,4.32
2018-12-31T01:48:55.277Z,4.36
2018-12-31T01:50:05.219Z,4.31
2018-12-31T01:51:16.327Z,4.36
2018-12-31T01:52:26.487Z,4.27
2018-12-31T01:53:36.458Z,4.24
2018-12-31T01:54:46.238Z,4.32
2018-12-31T01:55:56.199Z,4.24
2018-12-31T01:57:06.127Z,4.22
2018-12-31T01:58:16.135Z,4.25
2018-12-31T01:59:25.818Z,4.24
2018-12-31T02:00:36.592Z,4.32
2018-12-31T02:01:46.556Z,4.25
2018-12-31T02:02:56.266Z,4.25
2018-12-31T02:04:05.945Z,4.22
2018-12-31T02:05:15.379Z,4.21
2018-12-31T02:06:24.827Z,4.21
2018-12-31T02:07:34.525Z,4.21
2018-12-31T02:08:44.211Z,4.16
2018-12-31T02:09:53.971Z,4.21
2018-12-31T02:11:03.908Z,4.3
2018-12-31T02:12:13.335Z,4.22
2018-12-31T02:13:23.275Z,4.24
2018-12-31T02:14:33.224Z,4.18
2018-12-31T02:15:42.905Z,4.18
2018-12-31T02:16:52.850Z,4.2
2018-12-31T02:18:02.860Z,4.22
2018-12-31T02:19:12.790Z,4.18
2018-12-31T02:20:22.796Z,4.22
2018-12-31T02:21:32.784Z,4.21
2018-12-31T02:22:42.475Z,4.16
2018-12-31T02:23:52.409Z,4.16
2018-12-31T02:25:02.109Z,4.18
2018-12-31T02:26:13.644Z,4.22
2018-12-31T02:27:23.452Z,4.21
2018-12-31T02:28:33.146Z,4.18
2018-12-31T02:29:43.128Z,4.2
2018-12-31T02:30:52.836Z,4.1
2018-12-31T02:32:02.788Z,4.16
2018-12-31T02:33:12.494Z,4.18
2018-12-31T02:34:22.456Z,4.2
2018-12-31T02:35:32.149Z,4.18
2018-12-31T02:36:41.607Z,4.24
2018-12-31T02:37:51.303Z,4.18
2018-12-31T02:39:01.251Z,4.18
2018-12-31T02:40:10.962Z,4.2
2018-12-31T02:41:20.921Z,4.14
2018-12-31T02:42:30.672Z,4.22
2018-12-31T02:43:40.395Z,4.24
2018-12-31T02:44:50.082Z,4.2
2018-12-31T02:46:00.021Z,4.18
2018-12-31T02:47:09.474Z,4.24
2018-12-31T02:48:20.451Z,4.24
2018-12-31T02:49:30.166Z,4.13
2018-12-31T02:50:40.131Z,4.22
2018-12-31T02:51:49.840Z,4.31
2018-12-31T02:52:59.792Z,4.22
2018-12-31T02:54:09.775Z,4.24
2018-12-31T02:55:19.219Z,4.24
2018-12-31T02:56:28.911Z,4.25
2018-12-31T02:57:38.599Z,4.25
2018-12-31T02:58:48.275Z,4.22
2018-12-31T02:59:59.110Z,4.25
2018-12-31T03:01:09.194Z,4.27
2018-12-31T03:02:18.896Z,4.21
2018-12-31T03:03:28.610Z,4.22
2018-12-31T03:04:38.400Z,4.24
2018-12-31T03:05:48.438Z,4.22
2018-12-31T03:06:58.131Z,4.34
2018-12-31T03:08:08.087Z,4.32
2018-12-31T03:09:18.048Z,4.24
2018-12-31T03:10:27.752Z,4.21
2018-12-31T03:11:37.694Z,4.21
2018-12-31T03:12:47.383Z,4.24
2018-12-31T03:13:56.847Z,4.34
2018-12-31T03:15:06.571Z,4.25
2018-12-31T03:16:16.278Z,4.31
2018-12-31T03:17:26.221Z,4.24
2018-12-31T03:18:35.920Z,4.24
2018-12-31T03:19:45.857Z,4.22
2018-12-31T03:20:55.564Z,4.4
2018-12-31T03:22:05.291Z,4.24
2018-12-31T03:23:15.237Z,4.3
2018-12-31T03:24:24.683Z,4.28
2018-12-31T03:25:34.397Z,4.24
2018-12-31T03:26:44.439Z,4.38
2018-12-31T03:27:54.385Z,4.31
2018-12-31T03:29:04.342Z,4.25
2018-12-31T03:30:14.279Z,4.34
2018-12-31T03:31:24.265Z,4.24
2018-12-31T03:32:33.985Z,4.24
2018-12-31T03:33:43.975Z,4.24
2018-12-31T03:34:53.686Z,4.24
2018-12-31T03:36:03.628Z,4.21
2018-12-31T03:37:13.592Z,4.32
2018-12-31T03:38:23.285Z,4.25
2018-12-31T03:39:32.976Z,4.24
2018-12-31T03:40:42.419Z,4.24
2018-12-31T03:41:52.361Z,4.24
2018-12-31T03:43:02.301Z,4.24
2018-12-31T03:44:12.235Z,4.28
2018-12-31T03:45:22.202Z,4.25
2018-12-31T03:46:32.140Z,4.22
2018-12-31T03:47:42.084Z,4.24
2018-12-31T03:48:52.025Z,4.28
2018-12-31T03:50:02.046Z,4.2
2018-12-31T03:51:11.994Z,4.24
2018-12-31T03:52:21.944Z,4.22
2018-12-31T03:53:31.879Z,4.24
2018-12-31T03:54:41.829Z,4.24
2018-12-31T03:55:51.535Z,4.25
2018-12-31T03:57:01.480Z,4.21
2018-12-31T03:58:11.182Z,4.27
2018-12-31T03:59:21.130Z,4.24
2018-12-31T04:00:31.066Z,4.28
2018-12-31T04:01:41.094Z,4.27
2018-12-31T04:02:51.930Z,4.22
2018-12-31T04:04:01.370Z,4.25
2018-12-31T04:05:11.308Z,4.27
2018-12-31T04:06:21.001Z,4.25
2018-12-31T04:07:30.681Z,4.22
2018-12-31T04:08:40.610Z,4.21
2018-12-31T04:09:50.310Z,4.21
2018-12-31T04:11:00.238Z,4.24
2018-12-31T04:12:09.932Z,4.24
2018-12-31T04:13:19.621Z,4.22
2018-12-31T04:14:29.354Z,4.18
2018-12-31T04:15:39.312Z,4.22
2018-12-31T04:16:49.003Z,4.16
2018-12-31T04:17:58.963Z,4.22
2018-12-31T04:19:08.897Z,4.18
2018-12-31T04:20:18.589Z,4.22
2018-12-31T04:21:28.576Z,4.13
2018-12-31T04:22:38.522Z,4.2
2018-12-31T04:23:48.735Z,4.2
2018-12-31T04:24:58.693Z,4.14
2018-12-31T04:26:08.655Z,4.16
2018-12-31T04:27:18.661Z,4.2
2018-12-31T04:28:28.602Z,4.2
2018-12-31T04:29:38.371Z,4.18
2018-12-31T04:30:48.056Z,4.13
2018-12-31T04:31:57.741Z,4.16
2018-12-31T04:33:07.710Z,4.14
2018-12-31T04:34:17.651Z,4.22
2018-12-31T04:35:27.589Z,4.21
2018-12-31T04:36:37.540Z,4.18
2018-12-31T04:37:47.490Z,4.2
2018-12-31T04:38:57.439Z,4.22
2018-12-31T04:40:06.882Z,4.18
2018-12-31T04:41:16.917Z,4.12
2018-12-31T04:42:26.611Z,4.22
2018-12-31T04:43:36.561Z,4.21
2018-12-31T04:44:46.236Z,4.2
2018-12-31T04:45:56.184Z,4.2
2018-12-31T04:47:05.627Z,4.21
2018-12-31T04:48:15.571Z,4.2
2018-12-31T04:49:25.009Z,4.21
2018-12-31T04:50:34.719Z,4.13
2018-12-31T04:51:44.659Z,4.24
2018-12-31T04:52:54.341Z,4.24
2018-12-31T04:54:04.257Z,4.18
2018-12-31T04:55:13.969Z,4.22
2018-12-31T04:56:23.663Z,4.22
2018-12-31T04:57:33.099Z,4.14
2018-12-31T04:58:42.797Z,4.21
2018-12-31T04:59:52.507Z,4.25
2018-12-31T05:01:02.202Z,4.24
2018-12-31T05:02:12.150Z,4.27
2018-12-31T05:03:21.584Z,4.16
2018-12-31T05:04:31.533Z,4.27
2018-12-31T05:05:41.489Z,4.21
2018-12-31T05:06:51.454Z,4.27
2018-12-31T05:08:01.391Z,4.22
2018-12-31T05:09:11.337Z,4.21
2018-12-31T05:10:21.300Z,4.24
2018-12-31T05:11:31.247Z,4.24
2018-12-31T05:12:41.184Z,4.24
2018-12-31T05:13:50.875Z,4.25
2018-12-31T05:15:00.845Z,4.28
2018-12-31T05:16:10.539Z,4.22
2018-12-31T05:17:20.489Z,4.24
2018-12-31T05:18:30.424Z,4.24
2018-12-31T05:19:40.116Z,4.28
2018-12-31T05:20:49.801Z,4.4
2018-12-31T05:21:59.747Z,4.31
2018-12-31T05:23:10.427Z,4.4
2018-12-31T05:24:20.395Z,4.28
2018-12-31T05:25:30.343Z,4.25
2018-12-31T05:26:40.041Z,4.43
2018-12-31T05:27:49.478Z,4.46
2018-12-31T05:28:59.205Z,4.5
2018-12-31T05:30:08.896Z,4.53
2018-12-31T05:31:18.841Z,4.5
2018-12-31T05:32:28.807Z,4.52
2018-12-31T05:33:38.751Z,4.53
2018-12-31T05:34:48.686Z,4.58
2018-12-31T05:35:58.631Z,4.56
2018-12-31T05:37:08.323Z,4.6
2018-12-31T05:38:18.097Z,4.53
2018-12-31T05:39:28.025Z,4.52
2018-12-31T05:40:37.717Z,4.53
2018-12-31T05:41:47.403Z,4.56
2018-12-31T05:42:57.106Z,4.52
2018-12-31T05:44:06.554Z,4.58
2018-12-31T05:45:16.260Z,4.5
2018-12-31T05:46:26.192Z,4.56
2018-12-31T05:47:36.138Z,4.6
2018-12-31T05:48:46.079Z,4.58
2018-12-31T05:49:55.805Z,4.53
2018-12-31T05:51:05.761Z,4.53
2018-12-31T05:52:15.793Z,4.53
2018-12-31T05:53:25.738Z,4.6
2018-12-31T05:54:35.429Z,4.52
2018-12-31T05:55:44.864Z,4.56
2018-12-31T05:56:54.819Z,4.6
2018-12-31T05:58:04.774Z,4.58
2018-12-31T05:59:14.793Z,4.61
2018-12-31T06:00:24.737Z,4.58
2018-12-31T06:01:34.187Z,4.6
2018-12-31T06:02:43.871Z,4.61
2018-12-31T06:03:53.558Z,4.58
2018-12-31T06:05:03.516Z,4.56
2018-12-31T06:06:13.461Z,4.6
2018-12-31T06:07:23.417Z,4.57
2018-12-31T06:08:33.096Z,4.53
2018-12-31T06:09:42.773Z,4.56
2018-12-31T06:10:52.729Z,4.68
2018-12-31T06:12:01.935Z,4.63
2018-12-31T06:13:11.613Z,4.63
2018-12-31T06:14:21.304Z,4.7
2018-12-31T06:15:30.989Z,4.64
2018-12-31T06:16:40.685Z,4.71
2018-12-31T06:17:50.625Z,4.7
2018-12-31T06:19:00.569Z,4.7
2018-12-31T06:20:10.271Z,4.71
2018-12-31T06:21:20.208Z,4.71
2018-12-31T06:22:29.904Z,4.76
2018-12-31T06:23:39.840Z,4.7
2018-12-31T06:24:49.274Z,4.67
2018-12-31T06:25:58.971Z,4.67
2018-12-31T06:27:08.907Z,4.7
2018-12-31T06:28:18.860Z,4.71
2018-12-31T06:29:28.859Z,4.7
2018-12-31T06:30:38.546Z,4.67
2018-12-31T06:31:48.483Z,4.7
2018-12-31T06:32:58.413Z,4.75
2018-12-31T06:34:08.365Z,4.76
2018-12-31T06:35:18.367Z,4.75
2018-12-31T06:36:28.082Z,4.68
2018-12-31T06:37:38.021Z,4.75
2018-12-31T06:38:47.951Z,4.75
2018-12-31T06:39:57.649Z,4.82
2018-12-31T06:41:07.345Z,4.76
2018-12-31T06:42:17.027Z,4.79
2018-12-31T06:43:26.961Z,4.83
2018-12-31T06:44:36.668Z,4.82
2018-12-31T06:45:46.379Z,4.74
2018-12-31T06:46:56.060Z,4.87
2018-12-31T06:48:05.746Z,4.79
2018-12-31T06:49:15.694Z,4.82
2018-12-31T06:50:25.393Z,4.87
2018-12-31T06:51:35.335Z,4.87
2018-12-31T06:52:45.013Z,4.89
2018-12-31T06:53:54.451Z,4.9
2018-12-31T06:55:04.144Z,4.89
2018-12-31T06:56:14.082Z,4.86
2018-12-31T06:57:24.028Z,4.82
2018-12-31T06:58:33.967Z,4.83
2018-12-31T06:59:43.899Z,4.87
2018-12-31T07:00:53.841Z,5.01
2018-12-31T07:02:03.531Z,5
2018-12-31T07:03:13.461Z,4.87
2018-12-31T07:04:23.398Z,4.97
2018-12-31T07:05:33.347Z,4.98
2018-12-31T07:06:43.099Z,4.89
2018-12-31T07:07:52.792Z,5
2018-12-31T07:09:02.494Z,4.97
2018-12-31T07:10:12.180Z,5.02
2018-12-31T07:11:21.876Z,5.01
2018-12-31T07:12:31.813Z,4.92
2018-12-31T07:13:41.767Z,5.02
2018-12-31T07:14:51.468Z,5.04
2018-12-31T07:16:01.405Z,5.04
2018-12-31T07:17:11.362Z,5.01
2018-12-31T07:18:21.307Z,5.04
2018-12-31T07:19:30.996Z,5.02
2018-12-31T07:20:40.694Z,5.04
2018-12-31T07:21:50.133Z,5.08
2018-12-31T07:23:00.083Z,5.04
2018-12-31T07:24:10.025Z,5.02
2018-12-31T07:25:19.452Z,5.05
2018-12-31T07:26:29.393Z,5.01
2018-12-31T07:27:39.330Z,5.02
2018-12-31T07:28:49.273Z,5
2018-12-31T07:30:00.766Z,5.04
2018-12-31T07:31:10.708Z,5.01
2018-12-31T07:32:20.147Z,5.08
2018-12-31T07:33:30.091Z,5.08
2018-12-31T07:34:39.801Z,5.05
2018-12-31T07:35:49.750Z,5.1
2018-12-31T07:36:59.460Z,5.05
2018-12-31T07:38:09.446Z,5
2018-12-31T07:39:19.388Z,5.05
2018-12-31T07:40:29.343Z,5.02
2018-12-31T07:41:39.278Z,5.02
2018-12-31T07:42:49.232Z,5.08
2018-12-31T07:43:58.929Z,5.08
2018-12-31T07:45:08.880Z,5.05
2018-12-31T07:46:18.831Z,5
2018-12-31T07:47:28.780Z,4.98
2018-12-31T07:48:38.464Z,5.07
2018-12-31T07:49:48.161Z,5.13
2018-12-31T07:50:58.095Z,5.02
2018-12-31T07:52:07.701Z,5.04
2018-12-31T07:53:17.400Z,5.02
2018-12-31T07:54:27.088Z,5.12
2018-12-31T07:55:37.010Z,5.1
2018-12-31T07:56:46.941Z,5.08
2018-12-31T07:57:56.875Z,5.15
2018-12-31T07:59:06.386Z,5.1
2018-12-31T08:00:16.085Z,5.12
2018-12-31T08:01:26.028Z,5.15
2018-12-31T08:02:35.722Z,5.07
2018-12-31T08:03:45.431Z,5.1
2018-12-31T08:04:55.450Z,5.16
2018-12-31T08:06:05.384Z,5.18
2018-12-31T08:07:15.386Z,5.18
2018-12-31T08:08:25.090Z,5.16
2018-12-31T08:09:34.798Z,5.12
2018-12-31T08:10:44.486Z,5.23
2018-12-31T08:11:54.424Z,5.23
2018-12-31T08:13:04.186Z,5.22
2018-12-31T08:14:13.874Z,5.25
2018-12-31T08:15:23.590Z,5.19
2018-12-31T08:16:33.551Z,5.25
2018-12-31T08:17:43.494Z,5.23
2018-12-31T08:18:53.237Z,5.26
2018-12-31T08:20:03.173Z,5.26
2018-12-31T08:21:13.118Z,5.25
2018-12-31T08:22:23.085Z,5.33
2018-12-31T08:23:32.776Z,5.31
2018-12-31T08:24:42.758Z,5.31
2018-12-31T08:25:52.709Z,5.36
2018-12-31T08:27:02.654Z,5.36
2018-12-31T08:28:12.351Z,5.44
2018-12-31T08:29:22.296Z,5.46
2018-12-31T08:30:32.327Z,5.43
2018-12-31T08:31:42.274Z,5.47
2018-12-31T08:32:52.228Z,5.43
2018-12-31T08:34:01.923Z,5.41
2018-12-31T08:35:12.002Z,5.51
2018-12-31T08:36:21.855Z,5.54
2018-12-31T08:37:31.585Z,5.58
2018-12-31T08:38:41.282Z,5.59
2018-12-31T08:39:50.968Z,5.56
2018-12-31T08:41:00.658Z,5.58
2018-12-31T08:42:10.618Z,5.62
2018-12-31T08:43:20.311Z,5.59
2018-12-31T08:44:30.348Z,5.61
2018-12-31T08:45:39.788Z,5.7
2018-12-31T08:46:49.490Z,5.67
2018-12-31T08:47:59.198Z,5.61
2018-12-31T08:49:08.906Z,5.69
2018-12-31T08:50:18.858Z,5.65
2018-12-31T08:51:28.298Z,5.64
2018-12-31T08:52:37.984Z,5.73
2018-12-31T08:53:47.743Z,5.65
2018-12-31T08:54:57.680Z,5.72
2018-12-31T08:56:07.826Z,5.72
2018-12-31T08:57:17.776Z,5.69
2018-12-31T08:58:27.715Z,5.7
2018-12-31T08:59:37.412Z,5.67
2018-12-31T09:00:47.346Z,5.61
2018-12-31T09:01:57.036Z,5.67
2018-12-31T09:03:06.994Z,5.74
2018-12-31T09:04:16.678Z,5.7
2018-12-31T09:05:26.379Z,5.8
2018-12-31T09:06:36.076Z,5.87
2018-12-31T09:07:45.532Z,5.92
2018-12-31T09:08:55.484Z,5.91
2018-12-31T09:10:05.429Z,5.95
2018-12-31T09:11:15.112Z,6.02
2018-12-31T09:12:24.820Z,6.07
2018-12-31T09:13:34.509Z,6.12
2018-12-31T09:14:44.467Z,6.15
2018-12-31T09:15:54.412Z,6.15
2018-12-31T09:17:04.360Z,6.22
2018-12-31T09:18:14.334Z,6.17
2018-12-31T09:19:24.287Z,6.26
2018-12-31T09:20:34.241Z,6.26
2018-12-31T09:21:44.190Z,6.29
2018-12-31T09:22:54.142Z,6.43
2018-12-31T09:24:03.834Z,6.38
2018-12-31T09:25:13.543Z,6.35
2018-12-31T09:26:23.500Z,6.38
2018-12-31T09:27:33.460Z,6.38
2018-12-31T09:28:43.409Z,6.29
2018-12-31T09:29:52.857Z,6.38
2018-12-31T09:31:02.560Z,6.36
2018-12-31T09:32:13.145Z,6.29
2018-12-31T09:33:22.853Z,6.36
2018-12-31T09:34:32.785Z,6.31
2018-12-31T09:35:42.745Z,6.38
2018-12-31T09:36:52.679Z,6.36
2018-12-31T09:38:02.751Z,6.38
2018-12-31T09:39:12.199Z,6.35
2018-12-31T09:40:21.888Z,6.32
2018-12-31T09:41:31.839Z,6.28
2018-12-31T09:42:41.797Z,6.35
2018-12-31T09:43:51.747Z,6.36
2018-12-31T09:45:01.694Z,6.35
2018-12-31T09:46:11.399Z,6.38
2018-12-31T09:47:21.336Z,6.53
2018-12-31T09:48:31.031Z,6.35
2018-12-31T09:49:40.470Z,6.35
2018-12-31T09:50:50.419Z,6.38
2018-12-31T09:52:00.354Z,6.39
2018-12-31T09:53:10.293Z,6.41
2018-12-31T09:54:19.575Z,6.35
2018-12-31T09:55:29.256Z,6.44
2018-12-31T09:56:38.775Z,6.36
2018-12-31T09:57:48.731Z,6.32
2018-12-31T09:58:58.684Z,6.29
2018-12-31T10:00:08.630Z,6.29
2018-12-31T10:01:18.584Z,6.19
2018-12-31T10:02:28.526Z,6.25
2018-12-31T10:03:38.249Z,6.26
2018-12-31T10:04:48.182Z,6.32
2018-12-31T10:05:57.879Z,6.26
2018-12-31T10:07:07.824Z,6.38
2018-12-31T10:08:17.539Z,6.32
2018-12-31T10:09:27.233Z,6.38
2018-12-31T10:10:37.191Z,6.32
2018-12-31T10:11:46.900Z,6.38
2018-12-31T10:12:56.335Z,6.52
2018-12-31T10:14:05.824Z,6.54
2018-12-31T10:15:15.523Z,6.53
2018-12-31T10:16:25.478Z,6.62
2018-12-31T10:17:35.811Z,6.57
2018-12-31T10:18:45.775Z,6.59
2018-12-31T10:19:55.475Z,6.6
2018-12-31T10:21:05.179Z,6.6
2018-12-31T10:22:14.883Z,6.65
2018-12-31T10:23:24.837Z,6.64
2018-12-31T10:24:34.777Z,6.54
2018-12-31T10:25:44.473Z,6.6
2018-12-31T10:26:53.669Z,6.57
2018-12-31T10:28:03.354Z,6.57
2018-12-31T10:29:13.061Z,6.59
2018-12-31T10:30:22.747Z,6.54
2018-12-31T10:31:32.457Z,6.59
2018-12-31T10:32:42.394Z,6.6
2018-12-31T10:33:52.353Z,6.65
2018-12-31T10:35:02.303Z,6.65
2018-12-31T10:36:12.266Z,6.56
2018-12-31T10:37:22.225Z,6.65
2018-12-31T10:38:31.665Z,6.64
2018-12-31T10:39:41.102Z,6.62
2018-12-31T10:40:50.803Z,6.7
2018-12-31T10:42:00.743Z,6.7
2018-12-31T10:43:10.690Z,6.7
2018-12-31T10:44:20.633Z,6.75
2018-12-31T10:45:30.567Z,6.85
2018-12-31T10:46:40.330Z,6.97
2018-12-31T10:47:51.883Z,7
2018-12-31T10:49:01.658Z,7.15
2018-12-31T10:50:11.626Z,7.19
2018-12-31T10:51:21.562Z,7.31
2018-12-31T10:52:31.523Z,7.29
2018-12-31T10:53:41.219Z,7.32
2018-12-31T10:54:50.925Z,7.5
2018-12-31T10:56:00.873Z,7.59
2018-12-31T10:57:10.821Z,7.59
2018-12-31T10:58:20.857Z,7.58
2018-12-31T10:59:30.589Z,7.59
2018-12-31T11:00:40.529Z,7.61
2018-12-31T11:01:50.257Z,7.59
2018-12-31T11:03:00.212Z,7.67
2018-12-31T11:04:09.917Z,7.66
2018-12-31T11:05:19.623Z,7.7
2018-12-31T11:06:29.325Z,7.77
2018-12-31T11:07:39.267Z,7.61
2018-12-31T11:08:49.209Z,7.62
2018-12-31T11:09:59.181Z,7.59
2018-12-31T11:11:08.884Z,7.62
2018-12-31T11:12:18.612Z,7.59
2018-12-31T11:13:28.305Z,7.66
2018-12-31T11:14:38.262Z,7.64
2018-12-31T11:15:48.211Z,7.66
2018-12-31T11:16:58.174Z,7.62
2018-12-31T11:18:08.120Z,7.74
2018-12-31T11:19:17.820Z,7.78
2018-12-31T11:20:27.773Z,7.84
2018-12-31T11:21:37.468Z,8.11
2018-12-31T11:22:47.163Z,8.08
2018-12-31T11:23:57.194Z,8.08
2018-12-31T11:25:06.885Z,8.09
2018-12-31T11:26:16.915Z,8.17
2018-12-31T11:27:26.645Z,8.17
2018-12-31T11:28:36.599Z,8.23
2018-12-31T11:29:46.560Z,8.24
2018-12-31T11:30:56.591Z,8.24
2018-12-31T11:32:06.549Z,8.44
2018-12-31T11:33:16.501Z,8.52
2018-12-31T11:34:26.441Z,8.53
2018-12-31T11:35:36.135Z,8.59
2018-12-31T11:36:46.083Z,8.64
2018-12-31T11:37:55.785Z,8.74
2018-12-31T11:39:05.717Z,8.68
2018-12-31T11:40:15.683Z,8.66
2018-12-31T11:41:25.378Z,8.63
2018-12-31T11:42:35.338Z,8.53
2018-12-31T11:43:45.308Z,8.56
2018-12-31T11:44:55.013Z,8.57
2018-12-31T11:46:04.955Z,8.5
2018-12-31T11:47:14.395Z,8.44
2018-12-31T11:48:24.093Z,8.39
2018-12-31T11:49:34.042Z,8.32
2018-12-31T11:50:43.991Z,8.24
2018-12-31T11:51:53.935Z,8.21
2018-12-31T11:53:03.133Z,8.09
2018-12-31T11:54:12.824Z,8.06
2018-12-31T11:55:22.793Z,7.96
2018-12-31T11:56:32.743Z,7.85
2018-12-31T11:57:42.707Z,7.75
2018-12-31T11:58:52.164Z,7.78
2018-12-31T12:00:02.112Z,7.78
2018-12-31T12:01:12.069Z,7.61
2018-12-31T12:02:28.180Z,7.56
2018-12-31T12:03:38.132Z,7.59
2018-12-31T12:04:47.819Z,7.44
2018-12-31T12:05:57.755Z,7.51
2018-12-31T12:07:07.706Z,7.55
2018-12-31T12:08:17.664Z,7.55
2018-12-31T12:09:27.645Z,7.55
2018-12-31T12:10:37.618Z,7.55
2018-12-31T12:11:47.347Z,7.62
2018-12-31T12:12:57.322Z,7.61
2018-12-31T12:14:07.314Z,7.59
2018-12-31T12:15:17.039Z,7.59
2018-12-31T12:16:27.017Z,7.59
2018-12-31T12:17:36.831Z,7.81
2018-12-31T12:18:46.881Z,7.69
2018-12-31T12:19:57.210Z,7.75
2018-12-31T12:21:07.423Z,7.77
2018-12-31T12:22:18.565Z,7.81
2018-12-31T12:23:29.536Z,7.72
2018-12-31T12:24:39.777Z,7.83
2018-12-31T12:25:49.497Z,7.9
2018-12-31T12:26:59.745Z,7.75
2018-12-31T12:28:10.113Z,7.75
2018-12-31T12:29:20.093Z,7.75
2018-12-31T12:30:30.097Z,7.84
2018-12-31T12:31:40.093Z,7.75
2018-12-31T12:32:50.081Z,7.61
2018-12-31T12:33:59.543Z,7.78
2018-12-31T12:35:09.531Z,7.74
2018-12-31T12:36:19.499Z,7.83
2018-12-31T12:37:29.487Z,7.85
2018-12-31T12:38:39.468Z,7.9
2018-12-31T12:39:49.427Z,7.87
2018-12-31T12:40:59.132Z,7.88
2018-12-31T12:42:09.099Z,7.99
2018-12-31T12:43:18.853Z,7.99
2018-12-31T12:44:28.575Z,7.98
2018-12-31T12:45:38.293Z,7.85
2018-12-31T12:46:48.278Z,7.84
2018-12-31T12:47:58.305Z,7.85
2018-12-31T12:49:08.306Z,7.88
2018-12-31T12:50:18.268Z,7.83
2018-12-31T12:51:28.248Z,7.78
2018-12-31T12:52:37.986Z,7.88
2018-12-31T12:53:48.330Z,7.91
2018-12-31T12:54:58.566Z,7.91
2018-12-31T12:56:09.092Z,7.84
2018-12-31T12:57:19.812Z,7.88
2018-12-31T12:58:30.115Z,7.84
2018-12-31T12:59:41.717Z,7.8
2018-12-31T13:00:51.441Z,7.85
2018-12-31T13:02:01.419Z,7.83
2018-12-31T13:03:11.395Z,7.7
2018-12-31T13:04:21.369Z,7.83
2018-12-31T13:05:31.349Z,7.81
2018-12-31T13:06:40.845Z,7.72
2018-12-31T13:07:51.783Z,7.75
2018-12-31T13:09:01.509Z,7.72
2018-12-31T13:10:11.257Z,7.77
2018-12-31T13:11:21.254Z,7.78
2018-12-31T13:12:30.759Z,7.81
2018-12-31T13:13:40.547Z,7.8
2018-12-31T13:14:50.281Z,7.81
2018-12-31T13:16:00.284Z,7.75
2018-12-31T13:17:10.020Z,7.75
2018-12-31T13:18:19.745Z,7.78
2018-12-31T13:19:28.968Z,7.83
2018-12-31T13:20:38.706Z,7.85
2018-12-31T13:21:48.679Z,7.84
2018-12-31T13:22:58.654Z,7.8
2018-12-31T13:24:08.623Z,7.85
2018-12-31T13:25:18.350Z,7.83
2018-12-31T13:26:28.361Z,7.74
2018-12-31T13:27:38.518Z,7.83
2018-12-31T13:28:48.978Z,7.81
2018-12-31T13:30:00.164Z,7.78
2018-12-31T13:31:10.977Z,7.85
2018-12-31T13:32:20.974Z,7.87
2018-12-31T13:33:30.701Z,7.77
2018-12-31T13:34:40.438Z,7.85
2018-12-31T13:35:50.429Z,7.84
2018-12-31T13:37:00.392Z,7.88
2018-12-31T13:38:10.120Z,7.75
2018-12-31T13:39:19.853Z,7.87
2018-12-31T13:40:30.506Z,7.74
2018-12-31T13:41:41.504Z,7.84
2018-12-31T13:42:51.483Z,7.77
2018-12-31T13:44:01.237Z,7.83
2018-12-31T13:45:11.232Z,7.83
2018-12-31T13:46:21.217Z,7.91
2018-12-31T13:47:31.215Z,7.84
2018-12-31T13:48:41.202Z,7.81
2018-12-31T13:49:51.174Z,7.91
2018-12-31T13:51:01.154Z,7.96
2018-12-31T13:52:10.641Z,7.96
2018-12-31T13:53:20.649Z,8.03
2018-12-31T13:54:30.391Z,7.99
2018-12-31T13:55:40.377Z,8.06
2018-12-31T13:56:50.359Z,7.99
2018-12-31T13:58:00.349Z,7.96
2018-12-31T13:59:10.324Z,7.96
2018-12-31T14:00:20.314Z,7.85
2018-12-31T14:01:30.275Z,7.81
2018-12-31T14:02:42.136Z,7.84
2018-12-31T14:03:53.080Z,7.9
2018-12-31T14:05:03.312Z,7.84
2018-12-31T14:06:13.283Z,7.87
2018-12-31T14:07:23.012Z,7.85
2018-12-31T14:08:32.791Z,7.75
2018-12-31T14:09:42.779Z,7.81
2018-12-31T14:10:52.494Z,7.87
2018-12-31T14:12:01.990Z,7.84
2018-12-31T14:13:11.965Z,7.78
2018-12-31T14:14:21.508Z,7.78
2018-12-31T14:15:30.750Z,7.84
2018-12-31T14:16:40.473Z,7.85
2018-12-31T14:17:50.454Z,7.75
2018-12-31T14:19:00.990Z,7.85
2018-12-31T14:20:10.720Z,7.8
2018-12-31T14:21:20.458Z,7.83
2018-12-31T14:22:30.443Z,7.8
2018-12-31T14:23:40.422Z,7.81
2018-12-31T14:24:50.222Z,7.74
2018-12-31T14:26:00.258Z,7.81
2018-12-31T14:27:10.245Z,7.78
2018-12-31T14:28:20.019Z,7.78
2018-12-31T14:29:29.974Z,7.83
2018-12-31T14:30:39.963Z,7.77
2018-12-31T14:31:49.959Z,7.74
2018-12-31T14:32:59.696Z,7.88
2018-12-31T14:34:09.284Z,7.78
2018-12-31T14:35:19.590Z,7.75
2018-12-31T14:36:29.848Z,7.75
2018-12-31T14:37:40.651Z,7.8
2018-12-31T14:38:51.366Z,7.81
2018-12-31T14:40:01.609Z,7.77
2018-12-31T14:41:11.599Z,7.8
2018-12-31T14:42:21.593Z,7.75
2018-12-31T14:43:31.318Z,7.77
2018-12-31T14:44:41.364Z,7.85
2018-12-31T14:45:51.431Z,7.78
2018-12-31T14:47:01.429Z,7.74
2018-12-31T14:48:11.406Z,7.77
2018-12-31T14:49:20.902Z,7.78
2018-12-31T14:50:30.647Z,7.8
2018-12-31T14:51:40.368Z,7.9
2018-12-31T14:52:49.850Z,7.81
2018-12-31T14:53:59.837Z,7.77
2018-12-31T14:55:09.831Z,7.75
2018-12-31T14:56:19.801Z,7.7
2018-12-31T14:57:29.782Z,7.8
2018-12-31T14:58:39.517Z,7.75
2018-12-31T14:59:49.259Z,7.75
2018-12-31T15:00:59.251Z,7.83
2018-12-31T15:02:09.235Z,7.77
2018-12-31T15:03:19.244Z,7.8
2018-12-31T15:04:30.984Z,7.7
2018-12-31T15:05:40.731Z,7.75
2018-12-31T15:06:50.728Z,7.67
2018-12-31T15:08:00.687Z,7.62
2018-12-31T15:09:10.927Z,7.62
2018-12-31T15:10:21.288Z,7.61
2018-12-31T15:11:32.063Z,7.62
2018-12-31T15:12:42.870Z,7.64
2018-12-31T15:13:52.894Z,7.61
2018-12-31T15:15:02.887Z,7.61
2018-12-31T15:16:12.619Z,7.59
2018-12-31T15:17:22.660Z,7.59
2018-12-31T15:18:32.396Z,7.61
2018-12-31T15:19:42.146Z,7.61
2018-12-31T15:20:51.871Z,7.62
2018-12-31T15:22:01.879Z,7.72
2018-12-31T15:23:11.917Z,7.62
2018-12-31T15:24:21.903Z,7.66
2018-12-31T15:25:31.381Z,7.64
2018-12-31T15:26:41.107Z,7.55
2018-12-31T15:27:50.818Z,7.53
2018-12-31T15:29:00.788Z,7.47
2018-12-31T15:30:10.517Z,7.43
2018-12-31T15:31:20.581Z,7.36
2018-12-31T15:32:30.307Z,7.39
2018-12-31T15:33:40.281Z,7.28